Etusivu
METAR-TAF:

METAR-TAF

Lentoasemat :

Show Low, Arizona, Yhdysvallat

Leveyspiiri: 34-16N, Pituuspiiri: 110-00W, korkeus merenpinnasta: 1954 m

Tämänhetkinen sää

Tämä raportti tehtiin 24 minuuttia sitten, kello 13.15 UTC
tyyntä
Lämpötila 13°C
Kosteus 72%
Ilmanpaine 1023 hPa
Näkyvyys: 14.5 km
Hajanaisia pilviä 10000 ft:n korkeudessa

METAR: KSOW 251315Z AUTO 00000KT 9SM SCT100 13/08 A3021 RMK AO2

Aika: 06:39 (13:39 UTC)


TAF: puuttuu

Säähavainnot ja -ennusteet yli 4000 lentoasemalta (METAR- ja TAF-raportit).

Käytössä olevat sääasemat on merkitty karttaan keltaisilla ja punaisilla pisteillä.

Aseta hiiri pisteen päälle nähdäksesi sääaseman nimen.

Klikkaa sitten nähdäksesi säähavainnot ja -ennusteet.

Kartan vaihtaminen: klikkaa mustalla rastilla varustettuja vihreitä pisteitä, niin voit zoomata sisään; viivalla varustettua vihreää pistettä, niin voit zoomata ulos tai vihreitä nuolia, niin pääset viereisille kartoille.


METAR-TAF: